sensor_id;sensor_type;location;lat;lon;timestamp;temperature;humidity
4727;DHT22;2377;51.734;8.950;2024-01-30T00:02:25;3.80;1.00
4727;DHT22;2377;51.734;8.950;2024-01-30T00:04:53;3.80;1.00
4727;DHT22;2377;51.734;8.950;2024-01-30T00:07:20;3.80;1.00
4727;DHT22;2377;51.734;8.950;2024-01-30T00:09:47;3.80;1.00
4727;DHT22;2377;51.734;8.950;2024-01-30T00:12:15;3.80;1.00
4727;DHT22;2377;51.734;8.950;2024-01-30T00:14:43;3.80;1.00
4727;DHT22;2377;51.734;8.950;2024-01-30T00:17:11;3.80;1.00
4727;DHT22;2377;51.734;8.950;2024-01-30T00:19:38;3.80;1.00
4727;DHT22;2377;51.734;8.950;2024-01-30T00:22:06;3.80;1.00
4727;DHT22;2377;51.734;8.950;2024-01-30T00:24:33;3.80;1.00
4727;DHT22;2377;51.734;8.950;2024-01-30T00:27:01;3.80;1.00
4727;DHT22;2377;51.734;8.950;2024-01-30T00:29:30;3.80;1.00
4727;DHT22;2377;51.734;8.950;2024-01-30T00:31:59;3.80;1.00
4727;DHT22;2377;51.734;8.950;2024-01-30T00:34:26;3.80;1.00
4727;DHT22;2377;51.734;8.950;2024-01-30T00:36:53;3.70;1.00
4727;DHT22;2377;51.734;8.950;2024-01-30T00:39:21;3.70;1.00
4727;DHT22;2377;51.734;8.950;2024-01-30T00:41:48;3.70;1.00
4727;DHT22;2377;51.734;8.950;2024-01-30T00:44:15;3.80;1.00
4727;DHT22;2377;51.734;8.950;2024-01-30T00:46:44;3.80;1.00
4727;DHT22;2377;51.734;8.950;2024-01-30T00:49:11;3.80;1.00
4727;DHT22;2377;51.734;8.950;2024-01-30T00:51:39;3.80;1.00
4727;DHT22;2377;51.734;8.950;2024-01-30T00:54:06;3.80;1.00
4727;DHT22;2377;51.734;8.950;2024-01-30T00:56:34;3.70;1.00
4727;DHT22;2377;51.734;8.950;2024-01-30T00:59:01;3.70;1.00
4727;DHT22;2377;51.734;8.950;2024-01-30T01:01:28;3.70;1.00
4727;DHT22;2377;51.734;8.950;2024-01-30T01:03:56;3.70;1.00
4727;DHT22;2377;51.734;8.950;2024-01-30T01:06:23;3.70;1.00
4727;DHT22;2377;51.734;8.950;2024-01-30T01:08:51;3.60;1.00
4727;DHT22;2377;51.734;8.950;2024-01-30T01:11:19;3.60;1.00
4727;DHT22;2377;51.734;8.950;2024-01-30T01:13:46;3.70;1.00
4727;DHT22;2377;51.734;8.950;2024-01-30T01:16:13;3.60;1.00
4727;DHT22;2377;51.734;8.950;2024-01-30T01:18:41;3.60;1.00
4727;DHT22;2377;51.734;8.950;2024-01-30T01:21:09;3.60;1.00
4727;DHT22;2377;51.734;8.950;2024-01-30T01:23:37;3.60;1.00
4727;DHT22;2377;51.734;8.950;2024-01-30T01:26:04;3.60;1.00
4727;DHT22;2377;51.734;8.950;2024-01-30T01:28:32;3.60;1.00
4727;DHT22;2377;51.734;8.950;2024-01-30T01:31:03;3.60;1.00
4727;DHT22;2377;51.734;8.950;2024-01-30T01:33:31;3.60;1.00
4727;DHT22;2377;51.734;8.950;2024-01-30T01:35:58;3.60;1.00
4727;DHT22;2377;51.734;8.950;2024-01-30T01:38:29;3.60;1.00
4727;DHT22;2377;51.734;8.950;2024-01-30T01:40:56;3.60;1.00
4727;DHT22;2377;51.734;8.950;2024-01-30T01:43:23;3.60;1.00
4727;DHT22;2377;51.734;8.950;2024-01-30T01:45:50;3.60;1.00
4727;DHT22;2377;51.734;8.950;2024-01-30T01:48:19;3.60;1.00
4727;DHT22;2377;51.734;8.950;2024-01-30T01:50:47;3.50;1.00
4727;DHT22;2377;51.734;8.950;2024-01-30T01:53:15;3.50;1.00
4727;DHT22;2377;51.734;8.950;2024-01-30T01:55:45;3.50;1.00
4727;DHT22;2377;51.734;8.950;2024-01-30T01:58:14;3.50;1.00
4727;DHT22;2377;51.734;8.950;2024-01-30T02:00:43;3.50;1.00
4727;DHT22;2377;51.734;8.950;2024-01-30T02:03:11;3.50;1.00
4727;DHT22;2377;51.734;8.950;2024-01-30T02:05:41;3.50;1.00
4727;DHT22;2377;51.734;8.950;2024-01-30T02:08:09;3.50;1.00
4727;DHT22;2377;51.734;8.950;2024-01-30T02:10:36;3.50;1.00
4727;DHT22;2377;51.734;8.950;2024-01-30T02:13:05;3.50;1.00
4727;DHT22;2377;51.734;8.950;2024-01-30T02:15:32;3.50;1.00
4727;DHT22;2377;51.734;8.950;2024-01-30T02:17:59;3.50;1.00
4727;DHT22;2377;51.734;8.950;2024-01-30T02:20:29;3.50;1.00
4727;DHT22;2377;51.734;8.950;2024-01-30T02:23:01;3.50;1.00
4727;DHT22;2377;51.734;8.950;2024-01-30T02:25:33;3.50;1.00
4727;DHT22;2377;51.734;8.950;2024-01-30T02:28:05;3.50;1.00
4727;DHT22;2377;51.734;8.950;2024-01-30T02:30:32;3.50;1.00
4727;DHT22;2377;51.734;8.950;2024-01-30T02:32:59;3.60;1.00
4727;DHT22;2377;51.734;8.950;2024-01-30T02:35:26;3.50;1.00
4727;DHT22;2377;51.734;8.950;2024-01-30T02:37:53;3.50;1.00
4727;DHT22;2377;51.734;8.950;2024-01-30T02:40:22;3.50;1.00
4727;DHT22;2377;51.734;8.950;2024-01-30T02:42:49;3.50;1.00
4727;DHT22;2377;51.734;8.950;2024-01-30T02:45:17;3.50;1.00
4727;DHT22;2377;51.734;8.950;2024-01-30T02:47:46;3.50;1.00
4727;DHT22;2377;51.734;8.950;2024-01-30T02:50:13;3.50;1.00
4727;DHT22;2377;51.734;8.950;2024-01-30T02:52:41;3.50;1.00
4727;DHT22;2377;51.734;8.950;2024-01-30T02:55:10;3.50;1.00
4727;DHT22;2377;51.734;8.950;2024-01-30T02:57:39;3.50;1.00
4727;DHT22;2377;51.734;8.950;2024-01-30T03:00:07;3.50;1.00
4727;DHT22;2377;51.734;8.950;2024-01-30T03:02:35;3.50;1.00
4727;DHT22;2377;51.734;8.950;2024-01-30T03:05:04;3.50;1.00
4727;DHT22;2377;51.734;8.950;2024-01-30T03:07:35;3.50;1.00
4727;DHT22;2377;51.734;8.950;2024-01-30T03:10:04;3.50;1.00
4727;DHT22;2377;51.734;8.950;2024-01-30T03:12:33;3.50;1.00
4727;DHT22;2377;51.734;8.950;2024-01-30T03:15:02;3.60;1.00
4727;DHT22;2377;51.734;8.950;2024-01-30T03:17:29;3.60;1.00
4727;DHT22;2377;51.734;8.950;2024-01-30T03:19:56;3.60;1.00
4727;DHT22;2377;51.734;8.950;2024-01-30T03:22:24;3.50;1.00
4727;DHT22;2377;51.734;8.950;2024-01-30T03:24:51;3.50;1.00
4727;DHT22;2377;51.734;8.950;2024-01-30T03:27:18;3.60;1.00
4727;DHT22;2377;51.734;8.950;2024-01-30T03:29:46;3.60;1.00
4727;DHT22;2377;51.734;8.950;2024-01-30T03:32:14;3.50;1.00
4727;DHT22;2377;51.734;8.950;2024-01-30T03:34:41;3.60;1.00
4727;DHT22;2377;51.734;8.950;2024-01-30T03:37:08;3.60;1.00
4727;DHT22;2377;51.734;8.950;2024-01-30T03:39:36;3.50;1.00
4727;DHT22;2377;51.734;8.950;2024-01-30T03:42:03;3.50;1.00
4727;DHT22;2377;51.734;8.950;2024-01-30T03:44:31;3.60;1.00
4727;DHT22;2377;51.734;8.950;2024-01-30T03:46:58;3.60;1.00
4727;DHT22;2377;51.734;8.950;2024-01-30T03:49:27;3.60;1.00
4727;DHT22;2377;51.734;8.950;2024-01-30T03:51:54;3.60;1.00
4727;DHT22;2377;51.734;8.950;2024-01-30T03:54:21;3.60;1.00
4727;DHT22;2377;51.734;8.950;2024-01-30T03:56:48;3.60;1.00
4727;DHT22;2377;51.734;8.950;2024-01-30T03:59:16;3.60;1.00
4727;DHT22;2377;51.734;8.950;2024-01-30T04:01:47;3.60;1.00
4727;DHT22;2377;51.734;8.950;2024-01-30T04:04:16;3.60;1.00
4727;DHT22;2377;51.734;8.950;2024-01-30T04:06:45;3.60;1.00
4727;DHT22;2377;51.734;8.950;2024-01-30T04:09:12;3.60;1.00
4727;DHT22;2377;51.734;8.950;2024-01-30T04:11:40;3.60;1.00
4727;DHT22;2377;51.734;8.950;2024-01-30T04:14:08;3.50;1.00
4727;DHT22;2377;51.734;8.950;2024-01-30T04:16:35;3.50;1.00
4727;DHT22;2377;51.734;8.950;2024-01-30T04:19:02;3.50;1.00
4727;DHT22;2377;51.734;8.950;2024-01-30T04:21:29;3.50;1.00
4727;DHT22;2377;51.734;8.950;2024-01-30T04:24:00;3.50;1.00
4727;DHT22;2377;51.734;8.950;2024-01-30T04:26:27;3.50;1.00
4727;DHT22;2377;51.734;8.950;2024-01-30T04:28:55;3.50;1.00
4727;DHT22;2377;51.734;8.950;2024-01-30T04:31:24;3.50;1.00
4727;DHT22;2377;51.734;8.950;2024-01-30T04:33:51;3.50;1.00
4727;DHT22;2377;51.734;8.950;2024-01-30T04:36:20;3.50;1.00
4727;DHT22;2377;51.734;8.950;2024-01-30T04:38:47;3.50;1.00
4727;DHT22;2377;51.734;8.950;2024-01-30T04:41:16;3.50;1.00
4727;DHT22;2377;51.734;8.950;2024-01-30T04:43:43;3.50;1.00
4727;DHT22;2377;51.734;8.950;2024-01-30T04:46:10;3.50;1.00
4727;DHT22;2377;51.734;8.950;2024-01-30T04:48:37;3.50;1.00
4727;DHT22;2377;51.734;8.950;2024-01-30T04:51:05;3.50;1.00
4727;DHT22;2377;51.734;8.950;2024-01-30T04:53:32;3.50;1.00
4727;DHT22;2377;51.734;8.950;2024-01-30T04:55:59;3.50;1.00
4727;DHT22;2377;51.734;8.950;2024-01-30T04:58:27;3.50;1.00
4727;DHT22;2377;51.734;8.950;2024-01-30T05:00:55;3.50;1.00
4727;DHT22;2377;51.734;8.950;2024-01-30T05:03:23;3.40;1.00
4727;DHT22;2377;51.734;8.950;2024-01-30T05:05:50;3.40;1.00
4727;DHT22;2377;51.734;8.950;2024-01-30T05:08:17;3.40;1.00
4727;DHT22;2377;51.734;8.950;2024-01-30T05:10:44;3.40;1.00
4727;DHT22;2377;51.734;8.950;2024-01-30T05:13:11;3.40;1.00
4727;DHT22;2377;51.734;8.950;2024-01-30T05:15:41;3.30;1.00
4727;DHT22;2377;51.734;8.950;2024-01-30T05:18:08;3.40;1.00
4727;DHT22;2377;51.734;8.950;2024-01-30T05:20:35;3.40;1.00
4727;DHT22;2377;51.734;8.950;2024-01-30T05:23:02;3.30;1.00
4727;DHT22;2377;51.734;8.950;2024-01-30T05:25:30;3.30;1.00
4727;DHT22;2377;51.734;8.950;2024-01-30T05:27:57;3.30;1.00
4727;DHT22;2377;51.734;8.950;2024-01-30T05:30:25;3.30;1.00
4727;DHT22;2377;51.734;8.950;2024-01-30T05:32:53;3.30;1.00
4727;DHT22;2377;51.734;8.950;2024-01-30T05:35:20;3.30;1.00
4727;DHT22;2377;51.734;8.950;2024-01-30T05:37:48;3.30;1.00
4727;DHT22;2377;51.734;8.950;2024-01-30T05:40:17;3.30;1.00
4727;DHT22;2377;51.734;8.950;2024-01-30T05:42:44;3.40;1.00
4727;DHT22;2377;51.734;8.950;2024-01-30T05:45:12;3.30;1.00
4727;DHT22;2377;51.734;8.950;2024-01-30T05:47:39;3.30;1.00
4727;DHT22;2377;51.734;8.950;2024-01-30T05:50:08;3.30;1.00
4727;DHT22;2377;51.734;8.950;2024-01-30T05:52:36;3.30;1.00
4727;DHT22;2377;51.734;8.950;2024-01-30T05:55:03;3.30;1.00
4727;DHT22;2377;51.734;8.950;2024-01-30T05:57:32;3.30;1.00
4727;DHT22;2377;51.734;8.950;2024-01-30T05:59:59;3.30;1.00
4727;DHT22;2377;51.734;8.950;2024-01-30T06:02:26;3.30;1.00
4727;DHT22;2377;51.734;8.950;2024-01-30T06:04:56;3.30;1.00
4727;DHT22;2377;51.734;8.950;2024-01-30T06:07:26;3.30;1.00
4727;DHT22;2377;51.734;8.950;2024-01-30T06:09:53;3.30;1.00
4727;DHT22;2377;51.734;8.950;2024-01-30T06:12:20;3.30;1.00
4727;DHT22;2377;51.734;8.950;2024-01-30T06:14:47;3.20;1.00
4727;DHT22;2377;51.734;8.950;2024-01-30T06:17:14;3.20;1.00
4727;DHT22;2377;51.734;8.950;2024-01-30T06:19:42;3.20;1.00
4727;DHT22;2377;51.734;8.950;2024-01-30T06:22:12;3.20;1.00
4727;DHT22;2377;51.734;8.950;2024-01-30T06:24:41;3.20;1.00
4727;DHT22;2377;51.734;8.950;2024-01-30T06:27:10;3.20;1.00
4727;DHT22;2377;51.734;8.950;2024-01-30T06:29:38;3.20;1.00
4727;DHT22;2377;51.734;8.950;2024-01-30T06:32:06;3.20;1.00
4727;DHT22;2377;51.734;8.950;2024-01-30T06:34:33;3.20;1.00
4727;DHT22;2377;51.734;8.950;2024-01-30T06:37:00;3.20;1.00
4727;DHT22;2377;51.734;8.950;2024-01-30T06:39:28;3.20;1.00
4727;DHT22;2377;51.734;8.950;2024-01-30T06:41:56;3.10;1.00
4727;DHT22;2377;51.734;8.950;2024-01-30T06:44:23;3.10;1.00
4727;DHT22;2377;51.734;8.950;2024-01-30T06:46:51;3.10;1.00
4727;DHT22;2377;51.734;8.950;2024-01-30T06:49:18;3.10;1.00
4727;DHT22;2377;51.734;8.950;2024-01-30T06:51:45;3.10;1.00
4727;DHT22;2377;51.734;8.950;2024-01-30T06:54:12;3.10;1.00
4727;DHT22;2377;51.734;8.950;2024-01-30T06:56:39;3.10;1.00
4727;DHT22;2377;51.734;8.950;2024-01-30T06:59:11;3.10;1.00
4727;DHT22;2377;51.734;8.950;2024-01-30T07:01:40;3.10;1.00
4727;DHT22;2377;51.734;8.950;2024-01-30T07:04:07;3.10;1.00
4727;DHT22;2377;51.734;8.950;2024-01-30T07:06:34;3.10;1.00
4727;DHT22;2377;51.734;8.950;2024-01-30T07:09:01;3.10;1.00
4727;DHT22;2377;51.734;8.950;2024-01-30T07:11:30;3.10;1.00
4727;DHT22;2377;51.734;8.950;2024-01-30T07:13:58;3.10;1.00
4727;DHT22;2377;51.734;8.950;2024-01-30T07:16:30;3.10;1.00
4727;DHT22;2377;51.734;8.950;2024-01-30T07:18:58;3.00;1.00
4727;DHT22;2377;51.734;8.950;2024-01-30T07:21:25;3.10;1.00
4727;DHT22;2377;51.734;8.950;2024-01-30T07:23:54;3.00;1.00
4727;DHT22;2377;51.734;8.950;2024-01-30T07:26:21;3.00;1.00
4727;DHT22;2377;51.734;8.950;2024-01-30T07:28:48;3.00;1.00
4727;DHT22;2377;51.734;8.950;2024-01-30T07:31:16;2.90;1.00
4727;DHT22;2377;51.734;8.950;2024-01-30T07:33:47;3.00;1.00
4727;DHT22;2377;51.734;8.950;2024-01-30T07:36:15;3.00;1.00
4727;DHT22;2377;51.734;8.950;2024-01-30T07:38:42;3.00;1.00
4727;DHT22;2377;51.734;8.950;2024-01-30T07:41:09;3.00;1.00
4727;DHT22;2377;51.734;8.950;2024-01-30T07:43:37;3.10;1.00
4727;DHT22;2377;51.734;8.950;2024-01-30T07:46:04;3.10;1.00
4727;DHT22;2377;51.734;8.950;2024-01-30T07:48:32;3.20;1.00
4727;DHT22;2377;51.734;8.950;2024-01-30T07:51:01;3.20;1.00
4727;DHT22;2377;51.734;8.950;2024-01-30T07:53:29;3.30;1.00
4727;DHT22;2377;51.734;8.950;2024-01-30T07:55:59;3.30;1.00
4727;DHT22;2377;51.734;8.950;2024-01-30T07:58:26;3.30;1.00
4727;DHT22;2377;51.734;8.950;2024-01-30T08:00:54;3.30;1.00
4727;DHT22;2377;51.734;8.950;2024-01-30T08:03:23;3.40;1.00
4727;DHT22;2377;51.734;8.950;2024-01-30T08:05:51;3.40;1.00
4727;DHT22;2377;51.734;8.950;2024-01-30T08:08:20;3.50;1.00
4727;DHT22;2377;51.734;8.950;2024-01-30T08:10:47;3.50;1.00
4727;DHT22;2377;51.734;8.950;2024-01-30T08:13:15;3.50;1.00
4727;DHT22;2377;51.734;8.950;2024-01-30T08:15:42;3.50;1.00
4727;DHT22;2377;51.734;8.950;2024-01-30T08:18:09;3.50;1.00
4727;DHT22;2377;51.734;8.950;2024-01-30T08:20:36;3.50;1.00
4727;DHT22;2377;51.734;8.950;2024-01-30T08:23:04;3.60;1.00
4727;DHT22;2377;51.734;8.950;2024-01-30T08:25:32;3.60;1.00
4727;DHT22;2377;51.734;8.950;2024-01-30T08:27:59;3.60;1.00
4727;DHT22;2377;51.734;8.950;2024-01-30T08:30:27;3.60;1.00
4727;DHT22;2377;51.734;8.950;2024-01-30T08:32:55;3.60;1.00
4727;DHT22;2377;51.734;8.950;2024-01-30T08:35:22;3.60;1.00
4727;DHT22;2377;51.734;8.950;2024-01-30T08:37:49;3.70;1.00
4727;DHT22;2377;51.734;8.950;2024-01-30T08:40:16;3.80;1.00
4727;DHT22;2377;51.734;8.950;2024-01-30T08:42:44;3.80;1.00
4727;DHT22;2377;51.734;8.950;2024-01-30T08:45:12;3.80;1.00
4727;DHT22;2377;51.734;8.950;2024-01-30T08:47:42;3.90;1.00
4727;DHT22;2377;51.734;8.950;2024-01-30T08:50:09;3.90;1.00
4727;DHT22;2377;51.734;8.950;2024-01-30T08:52:37;4.00;1.00
4727;DHT22;2377;51.734;8.950;2024-01-30T08:55:04;4.00;1.00
4727;DHT22;2377;51.734;8.950;2024-01-30T08:57:31;4.00;1.00
4727;DHT22;2377;51.734;8.950;2024-01-30T09:00:00;4.10;1.00
4727;DHT22;2377;51.734;8.950;2024-01-30T09:02:32;4.10;1.00
4727;DHT22;2377;51.734;8.950;2024-01-30T09:04:59;4.10;1.00
4727;DHT22;2377;51.734;8.950;2024-01-30T09:07:26;4.30;1.00
4727;DHT22;2377;51.734;8.950;2024-01-30T09:09:53;4.30;1.00
4727;DHT22;2377;51.734;8.950;2024-01-30T09:12:20;4.40;1.00
4727;DHT22;2377;51.734;8.950;2024-01-30T09:14:47;4.50;1.00
4727;DHT22;2377;51.734;8.950;2024-01-30T09:17:17;4.50;1.00
4727;DHT22;2377;51.734;8.950;2024-01-30T09:19:46;4.60;1.00
4727;DHT22;2377;51.734;8.950;2024-01-30T09:22:13;4.60;1.00
4727;DHT22;2377;51.734;8.950;2024-01-30T09:24:41;4.70;1.00
4727;DHT22;2377;51.734;8.950;2024-01-30T09:27:09;4.80;1.00
4727;DHT22;2377;51.734;8.950;2024-01-30T09:29:36;4.90;1.00
4727;DHT22;2377;51.734;8.950;2024-01-30T09:32:04;5.00;1.00
4727;DHT22;2377;51.734;8.950;2024-01-30T09:34:33;5.10;1.00
4727;DHT22;2377;51.734;8.950;2024-01-30T09:37:01;5.30;1.00
4727;DHT22;2377;51.734;8.950;2024-01-30T09:39:28;5.50;1.00
4727;DHT22;2377;51.734;8.950;2024-01-30T09:42:02;5.60;1.00
4727;DHT22;2377;51.734;8.950;2024-01-30T09:44:35;5.70;1.00
4727;DHT22;2377;51.734;8.950;2024-01-30T09:47:04;5.80;1.00
4727;DHT22;2377;51.734;8.950;2024-01-30T09:49:33;5.80;1.00
4727;DHT22;2377;51.734;8.950;2024-01-30T09:52:02;5.80;1.00
4727;DHT22;2377;51.734;8.950;2024-01-30T09:54:31;5.90;1.00
4727;DHT22;2377;51.734;8.950;2024-01-30T09:56:59;6.00;1.00
4727;DHT22;2377;51.734;8.950;2024-01-30T09:59:26;6.10;1.00
4727;DHT22;2377;51.734;8.950;2024-01-30T10:01:54;6.30;1.00
4727;DHT22;2377;51.734;8.950;2024-01-30T10:04:22;6.50;1.00
4727;DHT22;2377;51.734;8.950;2024-01-30T10:06:51;6.50;1.00
4727;DHT22;2377;51.734;8.950;2024-01-30T10:09:18;6.60;1.00
4727;DHT22;2377;51.734;8.950;2024-01-30T10:11:45;6.60;1.00
4727;DHT22;2377;51.734;8.950;2024-01-30T10:14:12;6.70;1.00
4727;DHT22;2377;51.734;8.950;2024-01-30T10:16:40;6.80;1.00
4727;DHT22;2377;51.734;8.950;2024-01-30T10:19:07;6.80;1.00
4727;DHT22;2377;51.734;8.950;2024-01-30T10:21:35;7.00;1.00
4727;DHT22;2377;51.734;8.950;2024-01-30T10:24:04;7.00;1.00
4727;DHT22;2377;51.734;8.950;2024-01-30T10:26:32;7.00;1.00
4727;DHT22;2377;51.734;8.950;2024-01-30T10:28:59;7.10;1.00
4727;DHT22;2377;51.734;8.950;2024-01-30T10:31:28;7.00;1.00
4727;DHT22;2377;51.734;8.950;2024-01-30T10:33:55;7.00;1.00
4727;DHT22;2377;51.734;8.950;2024-01-30T10:36:28;7.00;1.00
4727;DHT22;2377;51.734;8.950;2024-01-30T10:38:59;7.00;1.00
4727;DHT22;2377;51.734;8.950;2024-01-30T10:41:31;7.00;1.00
4727;DHT22;2377;51.734;8.950;2024-01-30T10:44:08;7.00;1.00
4727;DHT22;2377;51.734;8.950;2024-01-30T10:46:38;7.00;1.00
4727;DHT22;2377;51.734;8.950;2024-01-30T10:49:06;7.00;1.00
4727;DHT22;2377;51.734;8.950;2024-01-30T10:51:37;7.00;1.00
4727;DHT22;2377;51.734;8.950;2024-01-30T10:54:06;7.00;1.00
4727;DHT22;2377;51.734;8.950;2024-01-30T10:56:35;7.10;1.00
4727;DHT22;2377;51.734;8.950;2024-01-30T10:59:04;7.10;1.00
4727;DHT22;2377;51.734;8.950;2024-01-30T11:01:32;7.10;1.00
4727;DHT22;2377;51.734;8.950;2024-01-30T11:03:59;7.10;1.00
4727;DHT22;2377;51.734;8.950;2024-01-30T11:06:26;7.10;1.00
4727;DHT22;2377;51.734;8.950;2024-01-30T11:09:04;7.10;1.00
4727;DHT22;2377;51.734;8.950;2024-01-30T11:11:49;7.20;1.00
4727;DHT22;2377;51.734;8.950;2024-01-30T11:14:23;7.30;1.00
4727;DHT22;2377;51.734;8.950;2024-01-30T11:16:51;7.30;1.00
4727;DHT22;2377;51.734;8.950;2024-01-30T11:19:23;7.40;1.00
4727;DHT22;2377;51.734;8.950;2024-01-30T11:21:51;7.50;1.00
4727;DHT22;2377;51.734;8.950;2024-01-30T11:24:20;7.70;1.00
4727;DHT22;2377;51.734;8.950;2024-01-30T11:26:54;7.80;1.00
4727;DHT22;2377;51.734;8.950;2024-01-30T11:29:24;7.90;1.00
4727;DHT22;2377;51.734;8.950;2024-01-30T11:31:52;8.00;1.00
4727;DHT22;2377;51.734;8.950;2024-01-30T11:34:22;8.00;1.00
4727;DHT22;2377;51.734;8.950;2024-01-30T11:36:53;8.10;1.00
4727;DHT22;2377;51.734;8.950;2024-01-30T11:39:25;8.20;1.00
4727;DHT22;2377;51.734;8.950;2024-01-30T11:41:55;8.30;1.00
4727;DHT22;2377;51.734;8.950;2024-01-30T11:44:22;8.40;1.00
4727;DHT22;2377;51.734;8.950;2024-01-30T11:46:51;8.50;1.00
4727;DHT22;2377;51.734;8.950;2024-01-30T11:49:19;8.50;1.00
4727;DHT22;2377;51.734;8.950;2024-01-30T11:51:49;8.60;1.00
4727;DHT22;2377;51.734;8.950;2024-01-30T11:54:18;8.70;1.00
4727;DHT22;2377;51.734;8.950;2024-01-30T11:56:45;8.70;1.00
4727;DHT22;2377;51.734;8.950;2024-01-30T11:59:14;8.70;1.00
4727;DHT22;2377;51.734;8.950;2024-01-30T12:01:41;8.70;1.00
4727;DHT22;2377;51.734;8.950;2024-01-30T12:04:09;8.70;1.00
4727;DHT22;2377;51.734;8.950;2024-01-30T12:06:36;8.80;1.00
4727;DHT22;2377;51.734;8.950;2024-01-30T12:09:09;8.90;1.00
4727;DHT22;2377;51.734;8.950;2024-01-30T12:11:45;9.00;1.00
4727;DHT22;2377;51.734;8.950;2024-01-30T12:14:14;9.10;1.00
4727;DHT22;2377;51.734;8.950;2024-01-30T12:16:42;9.20;1.00
4727;DHT22;2377;51.734;8.950;2024-01-30T12:19:10;9.30;1.00
4727;DHT22;2377;51.734;8.950;2024-01-30T12:21:39;9.30;1.00
4727;DHT22;2377;51.734;8.950;2024-01-30T12:24:07;9.30;1.00
4727;DHT22;2377;51.734;8.950;2024-01-30T12:26:34;9.40;1.00
4727;DHT22;2377;51.734;8.950;2024-01-30T12:29:04;9.40;1.00
4727;DHT22;2377;51.734;8.950;2024-01-30T12:31:33;9.40;1.00
4727;DHT22;2377;51.734;8.950;2024-01-30T12:34:02;9.40;1.00
4727;DHT22;2377;51.734;8.950;2024-01-30T12:36:30;9.40;1.00
4727;DHT22;2377;51.734;8.950;2024-01-30T12:38:59;9.50;1.00
4727;DHT22;2377;51.734;8.950;2024-01-30T12:41:27;9.60;1.00
4727;DHT22;2377;51.734;8.950;2024-01-30T12:43:56;9.60;1.00
4727;DHT22;2377;51.734;8.950;2024-01-30T12:46:27;9.60;1.00
4727;DHT22;2377;51.734;8.950;2024-01-30T12:48:57;9.70;1.00
4727;DHT22;2377;51.734;8.950;2024-01-30T12:51:24;9.70;1.00
4727;DHT22;2377;51.734;8.950;2024-01-30T12:53:51;9.70;1.00
4727;DHT22;2377;51.734;8.950;2024-01-30T12:56:19;9.80;1.00
4727;DHT22;2377;51.734;8.950;2024-01-30T12:58:46;9.70;1.00
4727;DHT22;2377;51.734;8.950;2024-01-30T13:01:15;9.80;1.00
4727;DHT22;2377;51.734;8.950;2024-01-30T13:03:44;9.80;1.00
4727;DHT22;2377;51.734;8.950;2024-01-30T13:06:13;9.80;1.00
4727;DHT22;2377;51.734;8.950;2024-01-30T13:08:40;9.90;1.00
4727;DHT22;2377;51.734;8.950;2024-01-30T13:11:07;9.90;1.00
4727;DHT22;2377;51.734;8.950;2024-01-30T13:13:37;9.90;1.00
4727;DHT22;2377;51.734;8.950;2024-01-30T13:16:06;10.00;1.00
4727;DHT22;2377;51.734;8.950;2024-01-30T13:18:33;10.00;1.00
4727;DHT22;2377;51.734;8.950;2024-01-30T13:21:00;9.90;1.00
4727;DHT22;2377;51.734;8.950;2024-01-30T13:23:31;9.80;1.00
4727;DHT22;2377;51.734;8.950;2024-01-30T13:25:58;9.80;1.00
4727;DHT22;2377;51.734;8.950;2024-01-30T13:28:25;9.80;1.00
4727;DHT22;2377;51.734;8.950;2024-01-30T13:30:53;9.80;1.00
4727;DHT22;2377;51.734;8.950;2024-01-30T13:33:21;9.80;1.00
4727;DHT22;2377;51.734;8.950;2024-01-30T13:35:49;9.80;1.00
4727;DHT22;2377;51.734;8.950;2024-01-30T13:38:17;10.00;1.00
4727;DHT22;2377;51.734;8.950;2024-01-30T13:40:47;10.00;1.00
4727;DHT22;2377;51.734;8.950;2024-01-30T13:43:14;10.10;1.00
4727;DHT22;2377;51.734;8.950;2024-01-30T13:45:41;10.20;1.00
4727;DHT22;2377;51.734;8.950;2024-01-30T13:48:09;10.30;1.00
4727;DHT22;2377;51.734;8.950;2024-01-30T13:50:36;10.30;1.00
4727;DHT22;2377;51.734;8.950;2024-01-30T13:53:06;10.40;1.00
4727;DHT22;2377;51.734;8.950;2024-01-30T13:55:34;10.40;1.00
4727;DHT22;2377;51.734;8.950;2024-01-30T13:58:05;10.40;1.00
4727;DHT22;2377;51.734;8.950;2024-01-30T14:00:34;10.40;1.00
4727;DHT22;2377;51.734;8.950;2024-01-30T14:03:02;10.50;1.00
4727;DHT22;2377;51.734;8.950;2024-01-30T14:05:30;10.50;1.00
4727;DHT22;2377;51.734;8.950;2024-01-30T14:07:58;10.40;1.00
4727;DHT22;2377;51.734;8.950;2024-01-30T14:10:27;10.40;1.00
4727;DHT22;2377;51.734;8.950;2024-01-30T14:12:55;10.40;1.00
4727;DHT22;2377;51.734;8.950;2024-01-30T14:15:24;10.30;1.00
4727;DHT22;2377;51.734;8.950;2024-01-30T14:17:51;10.40;1.00
4727;DHT22;2377;51.734;8.950;2024-01-30T14:20:20;10.30;1.00
4727;DHT22;2377;51.734;8.950;2024-01-30T14:22:47;10.40;1.00
4727;DHT22;2377;51.734;8.950;2024-01-30T14:25:19;10.40;1.00
4727;DHT22;2377;51.734;8.950;2024-01-30T14:27:47;10.40;1.00
4727;DHT22;2377;51.734;8.950;2024-01-30T14:30:14;10.40;1.00
4727;DHT22;2377;51.734;8.950;2024-01-30T14:32:43;10.40;1.00
4727;DHT22;2377;51.734;8.950;2024-01-30T14:35:10;10.40;1.00
4727;DHT22;2377;51.734;8.950;2024-01-30T14:37:38;10.40;1.00
4727;DHT22;2377;51.734;8.950;2024-01-30T14:40:07;10.40;1.00
4727;DHT22;2377;51.734;8.950;2024-01-30T14:42:34;10.40;1.00
4727;DHT22;2377;51.734;8.950;2024-01-30T14:45:03;10.40;1.00
4727;DHT22;2377;51.734;8.950;2024-01-30T14:47:33;10.50;1.00
4727;DHT22;2377;51.734;8.950;2024-01-30T14:50:02;10.40;1.00
4727;DHT22;2377;51.734;8.950;2024-01-30T14:52:31;10.40;1.00
4727;DHT22;2377;51.734;8.950;2024-01-30T14:54:58;10.30;1.00
4727;DHT22;2377;51.734;8.950;2024-01-30T14:57:25;10.30;1.00
4727;DHT22;2377;51.734;8.950;2024-01-30T14:59:54;10.30;1.00
4727;DHT22;2377;51.734;8.950;2024-01-30T15:02:21;10.30;1.00
4727;DHT22;2377;51.734;8.950;2024-01-30T15:04:49;10.30;1.00
4727;DHT22;2377;51.734;8.950;2024-01-30T15:07:19;10.30;1.00
4727;DHT22;2377;51.734;8.950;2024-01-30T15:09:46;10.30;1.00
4727;DHT22;2377;51.734;8.950;2024-01-30T15:12:13;10.40;1.00
4727;DHT22;2377;51.734;8.950;2024-01-30T15:14:41;10.40;1.00
4727;DHT22;2377;51.734;8.950;2024-01-30T15:17:16;10.30;1.00
4727;DHT22;2377;51.734;8.950;2024-01-30T15:19:44;10.30;1.00
4727;DHT22;2377;51.734;8.950;2024-01-30T15:22:12;10.30;1.00
4727;DHT22;2377;51.734;8.950;2024-01-30T15:24:42;10.30;1.00
4727;DHT22;2377;51.734;8.950;2024-01-30T15:27:09;10.30;1.00
4727;DHT22;2377;51.734;8.950;2024-01-30T15:29:37;10.30;1.00
4727;DHT22;2377;51.734;8.950;2024-01-30T15:32:05;10.30;1.00
4727;DHT22;2377;51.734;8.950;2024-01-30T15:34:33;10.30;1.00
4727;DHT22;2377;51.734;8.950;2024-01-30T15:37:00;10.30;1.00
4727;DHT22;2377;51.734;8.950;2024-01-30T15:39:29;10.30;1.00
4727;DHT22;2377;51.734;8.950;2024-01-30T15:41:59;10.30;1.00
4727;DHT22;2377;51.734;8.950;2024-01-30T15:44:26;10.30;1.00
4727;DHT22;2377;51.734;8.950;2024-01-30T15:46:53;10.30;1.00
4727;DHT22;2377;51.734;8.950;2024-01-30T15:49:20;10.30;1.00
4727;DHT22;2377;51.734;8.950;2024-01-30T15:51:48;10.30;1.00
4727;DHT22;2377;51.734;8.950;2024-01-30T15:54:15;10.30;1.00
4727;DHT22;2377;51.734;8.950;2024-01-30T15:56:43;10.30;1.00
4727;DHT22;2377;51.734;8.950;2024-01-30T15:59:12;10.30;1.00
4727;DHT22;2377;51.734;8.950;2024-01-30T16:01:40;10.30;1.00
4727;DHT22;2377;51.734;8.950;2024-01-30T16:04:09;10.30;1.00
4727;DHT22;2377;51.734;8.950;2024-01-30T16:06:36;10.30;1.00
4727;DHT22;2377;51.734;8.950;2024-01-30T16:09:03;10.30;1.00
4727;DHT22;2377;51.734;8.950;2024-01-30T16:11:30;10.30;1.00
4727;DHT22;2377;51.734;8.950;2024-01-30T16:13:58;10.30;1.00
4727;DHT22;2377;51.734;8.950;2024-01-30T16:16:27;10.30;1.00
4727;DHT22;2377;51.734;8.950;2024-01-30T16:18:54;10.20;1.00
4727;DHT22;2377;51.734;8.950;2024-01-30T16:21:21;10.10;1.00
4727;DHT22;2377;51.734;8.950;2024-01-30T16:23:52;10.10;1.00
4727;DHT22;2377;51.734;8.950;2024-01-30T16:26:19;10.10;1.00
4727;DHT22;2377;51.734;8.950;2024-01-30T16:28:47;10.10;1.00
4727;DHT22;2377;51.734;8.950;2024-01-30T16:31:15;10.10;1.00
4727;DHT22;2377;51.734;8.950;2024-01-30T16:33:47;10.10;1.00
4727;DHT22;2377;51.734;8.950;2024-01-30T16:36:14;10.10;1.00
4727;DHT22;2377;51.734;8.950;2024-01-30T16:38:41;10.10;1.00